createdAt,value
2018-04-13T06:17:11.841Z,3.27
2018-04-13T06:19:39.321Z,5.87
2018-04-13T06:22:07.594Z,6.47
2018-04-13T06:24:35.050Z,6.30
2018-04-13T06:27:03.027Z,7.83
2018-04-13T06:29:30.582Z,6.70
2018-04-13T06:31:58.041Z,3.80
2018-04-13T06:34:25.505Z,4.47
2018-04-13T06:36:55.046Z,3.93
2018-04-13T06:39:21.280Z,9.13
2018-04-13T06:41:49.309Z,4.47
2018-04-13T06:44:17.589Z,5.70
2018-04-13T06:46:45.111Z,4.27
2018-04-13T06:49:13.325Z,2.90
2018-04-13T06:51:40.781Z,2.80
2018-04-13T06:54:08.236Z,3.47
2018-04-13T06:56:35.705Z,2.93
2018-04-13T06:59:03.156Z,2.67
2018-04-13T07:01:31.530Z,2.03
2018-04-13T07:03:58.988Z,1.50
2018-04-13T07:06:26.553Z,1.50
2018-04-13T07:08:54.497Z,3.43
2018-04-13T07:11:21.972Z,3.37
2018-04-13T07:13:49.733Z,3.43
2018-04-13T07:16:17.197Z,8.23
2018-04-13T07:18:44.654Z,2.23
2018-04-13T07:21:12.197Z,5.50
2018-04-13T07:23:39.653Z,4.13
2018-04-13T07:26:07.577Z,2.30
2018-04-13T07:28:36.061Z,3.67
2018-04-13T07:31:05.364Z,3.73
2018-04-13T07:33:33.585Z,4.33
2018-04-13T07:36:01.051Z,4.77
2018-04-13T07:38:28.768Z,5.20
2018-04-13T07:40:56.238Z,8.23
2018-04-13T07:43:23.686Z,5.17
2018-04-13T07:45:51.509Z,5.23
2018-04-13T07:48:18.964Z,3.27
2018-04-13T07:50:46.525Z,2.20
2018-04-13T07:53:13.979Z,3.00
2018-04-13T07:55:41.545Z,3.00
2018-04-13T07:58:09.037Z,5.33
2018-04-13T08:00:37.269Z,1.70
2018-04-13T08:03:05.609Z,2.03
2018-04-13T08:05:33.145Z,2.07
2018-04-13T08:08:00.525Z,3.30
2018-04-13T08:10:27.993Z,2.50
2018-04-13T08:12:55.445Z,1.40
2018-04-13T08:15:23.537Z,1.13
2018-04-13T08:17:50.881Z,1.93
2018-04-13T08:20:18.373Z,1.00
2018-04-13T08:22:45.826Z,1.63
2018-04-13T08:25:13.889Z,2.70
2018-04-13T08:27:41.342Z,3.27
2018-04-13T08:30:09.450Z,3.23
2018-04-13T08:32:38.490Z,6.07
2018-04-13T08:35:06.432Z,4.20
2018-04-13T08:37:34.650Z,2.57
2018-04-13T08:40:02.150Z,1.83
2018-04-13T08:42:29.592Z,1.83
2018-04-13T08:44:57.062Z,1.23
2018-04-13T08:47:25.217Z,2.20
2018-04-13T08:49:52.892Z,2.00
2018-04-13T08:52:21.170Z,1.40
2018-04-13T08:54:49.447Z,3.27
2018-04-13T08:57:16.905Z,2.27
2018-04-13T08:59:45.077Z,1.53
2018-04-13T09:02:12.528Z,3.63
2018-04-13T09:04:39.993Z,4.23
2018-04-13T09:07:07.440Z,1.60
2018-04-13T09:09:35.210Z,2.00
2018-04-13T09:12:02.656Z,2.20
2018-04-13T09:14:40.085Z,2.10
2018-04-13T09:17:08.305Z,0.60
2018-04-13T09:19:35.817Z,2.70
2018-04-13T09:22:04.380Z,2.30
2018-04-13T09:24:31.845Z,4.97
2018-04-13T09:26:59.298Z,2.17
2018-04-13T09:29:26.762Z,1.60
2018-04-13T09:31:54.225Z,1.57
2018-04-13T09:34:22.273Z,2.40
2018-04-13T09:36:49.922Z,5.70
2018-04-13T09:39:17.748Z,5.40
2018-04-13T09:41:46.589Z,6.93
2018-04-13T09:44:14.062Z,3.63
2018-04-13T09:46:41.514Z,4.80
2018-04-13T09:49:08.989Z,4.33
2018-04-13T09:51:36.455Z,5.50
2018-04-13T09:54:03.934Z,4.27
2018-04-13T09:56:33.114Z,6.87
2018-04-13T09:59:00.567Z,4.57
2018-04-13T10:01:28.073Z,4.63
2018-04-13T10:04:10.977Z,4.90
2018-04-13T10:06:39.195Z,7.27
2018-04-13T10:09:06.646Z,3.30
2018-04-13T10:11:34.705Z,1.47
2018-04-13T10:14:02.167Z,4.17
2018-04-13T10:16:29.624Z,8.57
2018-04-13T10:18:57.660Z,3.70
2018-04-13T10:21:26.693Z,4.40
2018-04-13T10:23:54.156Z,3.80
2018-04-13T10:26:21.606Z,3.30
2018-04-13T10:28:49.099Z,5.40
2018-04-13T10:31:16.565Z,2.37
2018-04-13T10:33:44.121Z,3.73
2018-04-13T10:36:11.747Z,2.73
2018-04-13T10:38:39.204Z,3.17
2018-04-13T10:41:07.172Z,5.33
2018-04-13T10:43:34.632Z,3.27
2018-04-13T10:46:02.418Z,1.97
2018-04-13T10:48:29.872Z,4.27
2018-04-13T10:50:57.328Z,4.40
2018-04-13T10:53:24.870Z,3.53
2018-04-13T10:55:52.636Z,2.60
2018-04-13T10:58:20.092Z,4.77
2018-04-13T11:00:48.865Z,2.17
2018-04-13T11:03:16.324Z,3.90
2018-04-13T11:05:43.774Z,3.43
2018-04-13T11:08:11.497Z,2.30
2018-04-13T11:10:38.948Z,1.80
2018-04-13T11:13:06.412Z,1.50
2018-04-13T11:15:35.025Z,1.93
2018-04-13T11:18:03.256Z,1.73
2018-04-13T11:20:31.026Z,2.07
2018-04-13T11:22:58.485Z,2.90
2018-04-13T11:25:27.097Z,3.50
2018-04-13T11:27:54.643Z,4.67
2018-04-13T11:30:23.561Z,3.87
2018-04-13T11:32:51.804Z,3.20
2018-04-13T11:35:19.273Z,3.43
2018-04-13T11:37:46.741Z,3.37
2018-04-13T11:40:14.285Z,3.00
2018-04-13T11:42:41.837Z,2.20
2018-04-13T11:45:09.296Z,2.30
2018-04-13T11:47:36.741Z,3.90
2018-04-13T11:50:04.213Z,3.77
2018-04-13T11:52:31.671Z,3.90
2018-04-13T11:54:59.633Z,2.70
2018-04-13T11:57:27.942Z,2.97
2018-04-13T11:59:55.487Z,2.97
2018-04-13T12:02:23.546Z,2.57
2018-04-13T12:04:51.017Z,2.50
2018-04-13T12:07:18.481Z,2.90
2018-04-13T12:09:46.246Z,2.23
2018-04-13T12:12:13.897Z,2.30
2018-04-13T12:14:41.460Z,6.10
2018-04-13T12:17:08.909Z,2.27
2018-04-13T12:19:36.693Z,2.77
2018-04-13T12:22:04.145Z,7.13
2018-04-13T12:24:31.737Z,7.80
2018-04-13T12:27:00.577Z,4.10
2018-04-13T12:29:29.592Z,2.60
2018-04-13T12:31:57.416Z,4.67
2018-04-13T12:34:24.865Z,2.70
2018-04-13T12:36:52.337Z,2.10
2018-04-13T12:39:19.802Z,6.40
2018-04-13T12:41:47.287Z,2.40
2018-04-13T12:44:14.749Z,3.73
2018-04-13T12:46:42.492Z,9.73
2018-04-13T12:49:09.960Z,2.87
2018-04-13T12:51:38.069Z,4.00
2018-04-13T12:54:06.467Z,2.33
2018-04-13T12:56:34.679Z,2.80
2018-04-13T12:59:02.876Z,4.67
2018-04-13T13:01:30.325Z,2.13
2018-04-13T13:03:57.781Z,5.20
2018-04-13T13:06:25.851Z,2.57
2018-04-13T13:08:53.393Z,8.13
2018-04-13T13:11:20.841Z,2.87
2018-04-13T13:13:48.400Z,3.10
2018-04-13T13:16:16.063Z,4.97
2018-04-13T13:18:44.130Z,3.70
2018-04-13T13:21:11.784Z,5.50
2018-04-13T13:23:39.344Z,4.27
2018-04-13T13:26:06.797Z,3.23
2018-04-13T13:28:35.021Z,5.50
2018-04-13T13:31:03.701Z,3.77
2018-04-13T13:33:31.157Z,8.53
2018-04-13T13:35:58.614Z,2.40
2018-04-13T13:38:26.099Z,4.17
2018-04-13T13:40:53.757Z,2.73
2018-04-13T13:43:21.868Z,6.37
2018-04-13T13:45:50.085Z,2.80
2018-04-13T13:48:17.563Z,2.20
2018-04-13T13:50:45.013Z,2.93
2018-04-13T13:53:12.468Z,3.60
2018-04-13T13:55:40.121Z,2.97
2018-04-13T13:58:08.216Z,2.23
2018-04-13T14:00:35.685Z,2.90
2018-04-13T14:03:03.233Z,3.77
2018-04-13T14:05:30.913Z,5.47
2018-04-13T14:07:59.067Z,8.23
2018-04-13T14:10:26.513Z,6.40
2018-04-13T14:12:53.985Z,8.80
2018-04-13T14:15:21.433Z,8.77
2018-04-13T14:17:48.912Z,7.23
2018-04-13T14:20:17.097Z,7.67
2018-04-13T14:22:45.464Z,6.33
2018-04-13T14:25:12.917Z,5.90
2018-04-13T14:27:40.385Z,5.63
2018-04-13T14:30:07.841Z,5.77
2018-04-13T14:32:36.115Z,7.53
2018-04-13T14:35:03.577Z,5.90
2018-04-13T14:37:31.032Z,4.03
2018-04-13T14:39:58.481Z,4.17
2018-04-13T14:42:26.041Z,5.33
2018-04-13T14:44:54.097Z,3.20
2018-04-13T14:47:21.564Z,3.87
2018-04-13T14:49:49.329Z,4.40
2018-04-13T14:52:17.451Z,3.80
2018-04-13T14:54:45.673Z,3.23
2018-04-13T14:57:13.446Z,3.70
2018-04-13T14:59:41.941Z,4.43
2018-04-13T15:02:09.404Z,4.13
2018-04-13T15:04:37.612Z,3.73
2018-04-13T15:07:05.904Z,3.80
2018-04-13T15:09:33.357Z,3.83
2018-04-13T15:12:00.817Z,5.70
2018-04-13T15:14:28.757Z,10.20
2018-04-13T15:16:57.005Z,4.67
2018-04-13T15:19:24.465Z,4.10
2018-04-13T15:21:52.021Z,4.57
2018-04-13T15:24:19.549Z,4.27
2018-04-13T15:26:47.824Z,5.03
2018-04-13T15:29:15.833Z,4.90
2018-04-13T15:31:43.333Z,4.20
2018-04-13T15:34:12.083Z,5.30
2018-04-13T15:36:39.535Z,3.97
2018-04-13T15:39:06.981Z,5.00
2018-04-13T15:41:34.789Z,4.83
2018-04-13T15:44:03.013Z,6.80
2018-04-13T15:46:30.468Z,4.67
2018-04-13T15:48:58.137Z,3.73
2018-04-13T15:51:25.681Z,4.63
2018-04-13T15:53:53.442Z,4.13
2018-04-13T15:56:20.916Z,4.30
2018-04-13T15:58:48.364Z,5.43
2018-04-13T16:01:15.857Z,3.90
2018-04-13T16:03:43.309Z,4.37
2018-04-13T16:06:12.601Z,4.07
2018-04-13T16:08:40.925Z,4.43
2018-04-13T16:11:09.203Z,4.53
2018-04-13T16:13:37.429Z,5.47
2018-04-13T16:16:04.927Z,7.20
2018-04-13T16:18:32.380Z,5.83
2018-04-13T16:21:00.133Z,4.70
2018-04-13T16:23:27.594Z,4.80
2018-04-13T16:25:55.869Z,5.20
2018-04-13T16:28:28.541Z,4.90
2018-04-13T16:30:56.520Z,4.80
2018-04-13T16:33:24.096Z,4.90
2018-04-13T16:35:51.637Z,5.53
2018-04-13T16:38:19.097Z,7.30
2018-04-13T16:40:46.553Z,5.27
2018-04-13T16:43:14.013Z,5.07
2018-04-13T16:45:41.516Z,7.03
2018-04-13T16:48:09.727Z,5.53
2018-04-13T16:50:37.215Z,5.30
2018-04-13T16:53:04.671Z,5.53
2018-04-13T16:55:32.217Z,6.07
2018-04-13T16:57:59.677Z,4.97
2018-04-13T17:00:27.132Z,5.10
2018-04-13T17:02:54.673Z,5.13
2018-04-13T17:05:22.157Z,4.80
2018-04-13T17:07:49.706Z,5.30
2018-04-13T17:10:17.161Z,5.37
2018-04-13T17:12:44.632Z,4.23
2018-04-13T17:15:12.871Z,6.57
2018-04-13T17:17:40.433Z,5.37
2018-04-13T17:20:07.931Z,5.83
2018-04-13T17:22:35.389Z,5.93
2018-04-13T17:25:02.856Z,4.77
2018-04-13T17:27:30.732Z,5.00
2018-04-13T17:29:58.948Z,5.13
2018-04-13T17:32:26.409Z,5.93
2018-04-13T17:34:53.882Z,5.20
2018-04-13T17:37:21.363Z,5.23
2018-04-13T17:39:49.609Z,5.77
2018-04-13T17:42:17.057Z,5.80
2018-04-13T17:44:45.064Z,6.23
2018-04-13T17:47:12.517Z,7.47
2018-04-13T17:49:40.085Z,5.53
2018-04-13T17:52:07.542Z,5.73
2018-04-13T17:54:34.989Z,5.67
2018-04-13T17:57:02.579Z,6.00
2018-04-13T17:59:30.722Z,5.53
2018-04-13T18:01:59.108Z,7.13
2018-04-13T18:04:26.566Z,14.60
2018-04-13T18:06:54.028Z,7.10
2018-04-13T18:09:22.001Z,7.70
2018-04-13T18:11:49.481Z,6.50
2018-04-13T18:14:16.961Z,6.50
2018-04-13T18:16:44.484Z,5.87
2018-04-13T18:19:12.474Z,11.83
2018-04-13T18:21:40.710Z,6.50
2018-04-13T18:24:08.186Z,9.83
2018-04-13T18:26:36.361Z,7.40
2018-04-13T18:29:03.819Z,5.90
2018-04-13T18:31:31.890Z,9.93
2018-04-13T18:33:59.449Z,5.80
2018-04-13T18:36:28.338Z,5.93
2018-04-13T18:38:56.108Z,6.63
2018-04-13T18:41:23.772Z,6.73
2018-04-13T18:43:52.481Z,7.03
2018-04-13T18:46:21.311Z,9.47
2018-04-13T18:48:48.762Z,7.93
2018-04-13T18:51:16.585Z,6.67
2018-04-13T18:53:44.674Z,6.30
2018-04-13T18:56:12.914Z,6.27
2018-04-13T18:58:40.360Z,7.70
2018-04-13T19:01:07.821Z,7.47
2018-04-13T19:03:35.426Z,8.37
2018-04-13T19:06:02.813Z,9.97
2018-04-13T19:08:30.305Z,7.60
2018-04-13T19:10:57.773Z,7.77
2018-04-13T19:13:25.236Z,8.73
2018-04-13T19:15:52.969Z,8.00
2018-04-13T19:18:20.432Z,9.17
2018-04-13T19:20:47.974Z,8.03
2018-04-13T19:23:16.272Z,6.90
2018-04-13T19:25:43.792Z,7.87
2018-04-13T19:28:12.272Z,7.23
2018-04-13T19:30:44.886Z,7.67
2018-04-13T19:33:12.431Z,10.67
2018-04-13T19:35:39.905Z,7.03
2018-04-13T19:38:07.374Z,6.47
2018-04-13T19:40:35.606Z,6.50
2018-04-13T19:43:03.092Z,6.93
2018-04-13T19:45:30.600Z,6.93
2018-04-13T19:47:58.056Z,7.50
2018-04-13T19:50:26.330Z,12.67
2018-04-13T19:52:53.817Z,11.23
2018-04-13T19:55:22.768Z,17.83
2018-04-13T19:57:50.307Z,17.43
2018-04-13T20:00:17.769Z,11.83
2018-04-13T20:02:45.256Z,9.27
2018-04-13T20:05:12.809Z,10.23
2018-04-13T20:07:40.289Z,7.57
2018-04-13T20:10:08.646Z,5.67
2018-04-13T20:12:36.717Z,5.23
2018-04-13T20:15:04.174Z,5.47
2018-04-13T20:17:31.656Z,8.30
2018-04-13T20:19:59.885Z,9.83
2018-04-13T20:22:27.366Z,7.53
2018-04-13T20:24:54.824Z,8.67
2018-04-13T20:27:22.348Z,9.17
2018-04-13T20:29:50.560Z,8.27
2018-04-13T20:32:18.017Z,6.97
2018-04-13T20:34:46.196Z,7.03
2018-04-13T20:37:13.763Z,8.37
2018-04-13T20:39:41.989Z,6.27
2018-04-13T20:42:09.451Z,7.23
2018-04-13T20:44:37.047Z,6.40
2018-04-13T20:47:04.516Z,6.47
2018-04-13T20:49:32.000Z,11.53
2018-04-13T20:52:00.773Z,6.00
2018-04-13T20:54:28.266Z,8.40
2018-04-13T20:56:55.757Z,7.77
2018-04-13T20:59:23.216Z,5.77
2018-04-13T21:01:50.748Z,6.20
2018-04-13T21:04:18.245Z,5.70
2018-04-13T21:06:45.953Z,11.40
2018-04-13T21:09:14.273Z,10.37
2018-04-13T21:11:41.745Z,20.60
2018-04-13T21:14:09.217Z,39.87
2018-04-13T21:16:37.281Z,17.13
2018-04-13T21:19:04.764Z,15.03
2018-04-13T21:21:33.015Z,11.17
2018-04-13T21:24:01.861Z,10.23
2018-04-13T21:26:29.771Z,10.40
2018-04-13T21:28:57.274Z,7.50
2018-04-13T21:31:24.721Z,9.63
2018-04-13T21:33:52.977Z,9.47
2018-04-13T21:36:21.243Z,9.03
2018-04-13T21:38:48.711Z,9.60
2018-04-13T21:41:16.151Z,9.20
2018-04-13T21:43:44.478Z,8.80
2018-04-13T21:46:12.706Z,10.57
2018-04-13T21:48:40.153Z,8.70
2018-04-13T21:51:07.621Z,9.40
2018-04-13T21:53:35.122Z,9.57
2018-04-13T21:56:02.525Z,10.87
2018-04-13T21:58:29.996Z,12.30
2018-04-13T22:00:57.449Z,11.53
2018-04-13T22:03:25.354Z,10.63
2018-04-13T22:05:53.567Z,9.90
2018-04-13T22:08:21.121Z,11.03
2018-04-13T22:10:48.621Z,13.77
2018-04-13T22:13:34.921Z,8.77
2018-04-13T22:16:03.192Z,7.03
2018-04-13T22:18:30.659Z,8.00
2018-04-13T22:20:58.111Z,6.47
2018-04-13T22:23:25.564Z,6.77
2018-04-13T22:25:53.856Z,9.30
2018-04-13T22:28:21.416Z,10.83
2018-04-13T22:30:48.860Z,8.40
2018-04-13T22:33:16.336Z,10.67
2018-04-13T22:35:44.606Z,11.27
2018-04-13T22:38:12.244Z,9.37
2018-04-13T22:40:39.709Z,10.97
2018-04-13T22:43:07.165Z,9.17
2018-04-13T22:45:34.741Z,9.33
2018-04-13T22:48:02.261Z,8.27
2018-04-13T22:50:30.305Z,9.07
2018-04-13T22:52:59.369Z,8.37
2018-04-13T22:55:26.829Z,7.97
2018-04-13T22:57:54.284Z,8.07
2018-04-13T23:00:21.741Z,9.13
2018-04-13T23:02:49.197Z,8.83
2018-04-13T23:05:16.761Z,10.03
2018-04-13T23:07:45.063Z,9.10
2018-04-13T23:10:13.289Z,10.50
2018-04-13T23:12:41.010Z,9.57
2018-04-13T23:15:09.281Z,10.47
2018-04-13T23:17:38.042Z,9.77
2018-04-13T23:20:06.681Z,9.07
2018-04-13T23:22:38.199Z,9.50
2018-04-13T23:25:05.653Z,10.43
2018-04-13T23:27:33.113Z,11.10
2018-04-13T23:30:01.456Z,10.80
2018-04-13T23:32:29.124Z,11.27
2018-04-13T23:34:57.116Z,11.57
2018-04-13T23:37:24.573Z,11.87
2018-04-13T23:39:52.444Z,13.90
2018-04-13T23:42:20.013Z,13.57
2018-04-13T23:44:47.685Z,13.63
2018-04-13T23:47:15.936Z,12.47
2018-04-13T23:49:43.420Z,13.47
2018-04-13T23:52:11.649Z,12.83
2018-04-13T23:54:39.112Z,14.30
2018-04-13T23:57:06.577Z,16.53
2018-04-13T23:59:34.041Z,14.27
